createdAt,value
2019-03-12T00:00:07.466Z,0.00
2019-03-12T00:01:07.437Z,0.00
2019-03-12T00:02:07.425Z,0.00
2019-03-12T00:03:07.414Z,0.00
2019-03-12T00:04:07.404Z,0.00
2019-03-12T00:05:07.402Z,0.00
2019-03-12T00:06:07.380Z,0.00
2019-03-12T00:07:07.371Z,0.00
2019-03-12T00:08:07.362Z,0.00
2019-03-12T00:09:07.351Z,0.00
2019-03-12T00:10:07.358Z,0.00
2019-03-12T00:11:07.332Z,0.00
2019-03-12T00:12:07.317Z,0.00
2019-03-12T00:13:07.307Z,0.00
2019-03-12T00:14:07.296Z,0.00
2019-03-12T00:15:07.300Z,0.00
2019-03-12T00:16:07.273Z,0.00
2019-03-12T00:17:07.264Z,0.00
2019-03-12T00:18:07.255Z,0.00
2019-03-12T00:19:07.241Z,0.00
2019-03-12T00:20:07.241Z,0.00
2019-03-12T00:21:07.221Z,0.00
2019-03-12T00:22:07.217Z,0.00
2019-03-12T00:23:07.201Z,0.00
2019-03-12T00:24:07.187Z,0.00
2019-03-12T00:25:07.185Z,0.00
2019-03-12T00:26:07.167Z,0.00
2019-03-12T00:27:07.156Z,0.00
2019-03-12T00:28:07.153Z,0.00
2019-03-12T00:29:07.136Z,0.00
2019-03-12T00:30:07.135Z,0.00
2019-03-12T00:31:07.114Z,0.00
2019-03-12T00:32:07.205Z,0.00
2019-03-12T00:33:07.095Z,0.00
2019-03-12T00:34:07.080Z,0.00
2019-03-12T00:35:07.086Z,0.00
2019-03-12T00:36:07.059Z,0.00
2019-03-12T00:37:07.053Z,0.00
2019-03-12T00:38:07.037Z,0.00
2019-03-12T00:39:07.029Z,0.00
2019-03-12T00:40:07.023Z,0.00
2019-03-12T00:41:07.003Z,0.00
2019-03-12T00:42:06.993Z,0.00
2019-03-12T00:43:06.985Z,0.00
2019-03-12T00:44:06.972Z,0.00
2019-03-12T00:45:06.976Z,0.00
2019-03-12T00:46:06.949Z,0.00
2019-03-12T00:47:06.945Z,0.00
2019-03-12T00:48:06.928Z,0.00
2019-03-12T00:49:06.917Z,0.00
2019-03-12T00:50:06.941Z,0.00
2019-03-12T00:51:06.898Z,0.00
2019-03-12T00:52:06.890Z,0.00
2019-03-12T00:53:06.879Z,0.00
2019-03-12T00:54:06.866Z,0.00
2019-03-12T00:55:06.852Z,0.00
2019-03-12T00:56:06.854Z,0.00
2019-03-12T00:57:06.846Z,0.00
2019-03-12T00:58:06.820Z,0.00
2019-03-12T00:59:06.808Z,0.00
2019-03-12T01:00:06.800Z,0.00
2019-03-12T01:01:06.807Z,0.00
2019-03-12T01:02:06.782Z,0.00
2019-03-12T01:03:06.767Z,0.00
2019-03-12T01:04:06.757Z,0.00
2019-03-12T01:05:06.744Z,0.00
2019-03-12T01:06:06.744Z,0.00
2019-03-12T01:07:06.726Z,0.00
2019-03-12T01:08:06.716Z,0.00
2019-03-12T01:09:06.702Z,0.00
2019-03-12T01:10:06.691Z,0.00
2019-03-12T01:11:06.697Z,0.00
2019-03-12T01:12:06.684Z,0.00
2019-03-12T01:13:06.660Z,0.00
2019-03-12T01:14:06.655Z,0.00
2019-03-12T01:15:06.637Z,0.00
2019-03-12T01:16:06.633Z,0.00
2019-03-12T01:17:06.615Z,0.00
2019-03-12T01:18:06.605Z,0.00
2019-03-12T01:19:06.597Z,0.00
2019-03-12T01:20:06.599Z,0.00
2019-03-12T01:21:06.582Z,0.00
2019-03-12T01:22:06.564Z,0.00
2019-03-12T01:23:06.552Z,0.00
2019-03-12T01:24:06.544Z,0.00
2019-03-12T01:25:06.530Z,0.00
2019-03-12T01:26:06.532Z,0.00
2019-03-12T01:27:06.507Z,0.00
2019-03-12T01:28:06.496Z,0.00
2019-03-12T01:29:06.568Z,0.00
2019-03-12T01:30:06.476Z,0.00
2019-03-12T01:31:06.479Z,0.00
2019-03-12T01:32:06.452Z,0.00
2019-03-12T01:33:06.441Z,0.00
2019-03-12T01:34:06.431Z,0.00
2019-03-12T01:35:06.426Z,0.00
2019-03-12T01:36:06.416Z,0.00
2019-03-12T01:37:06.412Z,0.00
2019-03-12T01:38:06.390Z,0.00
2019-03-12T01:39:06.380Z,0.00
2019-03-12T01:40:06.365Z,0.00
2019-03-12T01:41:06.376Z,0.00
2019-03-12T01:42:06.344Z,0.00
2019-03-12T01:43:06.334Z,0.00
2019-03-12T01:44:06.321Z,0.00
2019-03-12T01:45:06.316Z,0.00
2019-03-12T01:46:06.320Z,0.00
2019-03-12T01:47:06.288Z,0.00
2019-03-12T01:48:06.291Z,0.00
2019-03-12T01:49:07.156Z,0.00
2019-03-12T01:50:06.280Z,0.00
2019-03-12T01:51:06.261Z,0.00
2019-03-12T01:52:06.237Z,0.00
2019-03-12T01:53:06.266Z,0.00
2019-03-12T01:54:06.213Z,0.00
2019-03-12T01:55:06.205Z,0.00
2019-03-12T01:56:06.200Z,0.00
2019-03-12T01:57:06.190Z,0.00
2019-03-12T01:58:06.178Z,0.00
2019-03-12T01:59:06.159Z,0.00
2019-03-12T02:00:06.148Z,0.00
2019-03-12T02:01:06.148Z,0.00
2019-03-12T02:02:06.126Z,0.00
2019-03-12T02:03:06.116Z,0.00
2019-03-12T02:04:06.111Z,0.00
2019-03-12T02:05:06.121Z,0.00
2019-03-12T02:06:06.091Z,0.00
2019-03-12T02:07:06.072Z,0.00
2019-03-12T02:08:06.064Z,0.00
2019-03-12T02:09:06.054Z,0.00
2019-03-12T02:10:06.042Z,0.00
2019-03-12T02:11:06.043Z,0.00
2019-03-12T02:12:06.018Z,0.00
2019-03-12T02:13:06.007Z,0.00
2019-03-12T02:14:05.999Z,0.00
2019-03-12T02:15:05.994Z,0.00
2019-03-12T02:16:05.975Z,0.00
2019-03-12T02:17:05.981Z,0.00
2019-03-12T02:18:05.955Z,0.00
2019-03-12T02:19:05.943Z,0.00
2019-03-12T02:20:05.935Z,0.00
2019-03-12T02:21:05.923Z,0.00
2019-03-12T02:22:05.928Z,0.00
2019-03-12T02:23:05.901Z,0.00
2019-03-12T02:24:05.898Z,0.00
2019-03-12T02:25:05.878Z,0.00
2019-03-12T02:26:05.870Z,0.00
2019-03-12T02:27:05.865Z,0.00
2019-03-12T02:28:05.861Z,0.00
2019-03-12T02:29:05.836Z,0.00
2019-03-12T02:30:05.889Z,0.00
2019-03-12T02:31:05.820Z,0.00
2019-03-12T02:32:05.821Z,0.00
2019-03-12T02:33:05.803Z,0.00
2019-03-12T02:34:05.795Z,0.00
2019-03-12T02:35:05.856Z,0.00
2019-03-12T02:36:05.761Z,0.00
2019-03-12T02:37:05.760Z,0.00
2019-03-12T02:38:05.758Z,0.00
2019-03-12T02:39:05.738Z,0.00
2019-03-12T02:40:05.719Z,0.00
2019-03-12T02:41:05.709Z,0.00
2019-03-12T02:42:05.707Z,0.00
2019-03-12T02:43:05.694Z,0.00
2019-03-12T02:44:05.731Z,0.00
2019-03-12T02:45:05.705Z,0.00
2019-03-12T02:46:05.651Z,0.00
2019-03-12T02:47:15.231Z,0.00
2019-03-12T02:48:05.635Z,0.00
2019-03-12T02:49:09.137Z,0.00
2019-03-12T02:50:05.610Z,0.00
2019-03-12T02:51:05.601Z,0.00
2019-03-12T02:52:05.597Z,0.00
2019-03-12T02:53:05.576Z,0.00
2019-03-12T02:54:05.563Z,0.00
2019-03-12T02:55:05.553Z,0.00
2019-03-12T02:56:05.544Z,0.00
2019-03-12T02:57:05.544Z,0.00
2019-03-12T02:58:05.521Z,0.00
2019-03-12T02:59:05.532Z,0.00
2019-03-12T03:00:05.497Z,0.00
2019-03-12T03:01:05.488Z,0.00
2019-03-12T03:02:05.489Z,0.00
2019-03-12T03:03:05.467Z,0.00
2019-03-12T03:04:05.456Z,0.00
2019-03-12T03:05:05.453Z,0.00
2019-03-12T03:06:05.437Z,0.00
2019-03-12T03:07:05.432Z,0.00
2019-03-12T03:08:05.415Z,0.00
2019-03-12T03:09:05.407Z,0.00
2019-03-12T03:10:05.395Z,0.00
2019-03-12T03:11:05.398Z,0.00
2019-03-12T03:12:05.418Z,0.00
2019-03-12T03:13:05.359Z,0.00
2019-03-12T03:14:05.345Z,0.00
2019-03-12T03:15:05.342Z,0.00
2019-03-12T03:16:05.328Z,0.00
2019-03-12T03:17:05.312Z,0.00
2019-03-12T03:18:05.318Z,0.00
2019-03-12T03:19:05.293Z,0.00
2019-03-12T03:20:05.285Z,0.00
2019-03-12T03:21:05.276Z,0.00
2019-03-12T03:22:05.259Z,0.00
2019-03-12T03:23:05.261Z,0.00
2019-03-12T03:24:05.237Z,0.00
2019-03-12T03:25:05.230Z,0.00
2019-03-12T03:26:05.288Z,0.00
2019-03-12T03:27:05.216Z,0.00
2019-03-12T03:28:05.209Z,0.00
2019-03-12T03:29:05.190Z,0.00
2019-03-12T03:30:05.176Z,0.00
2019-03-12T03:31:05.164Z,0.00
2019-03-12T03:32:05.159Z,0.00
2019-03-12T03:33:05.206Z,0.00
2019-03-12T03:34:05.151Z,0.00
2019-03-12T03:35:05.118Z,0.00
2019-03-12T03:36:05.107Z,0.00
2019-03-12T03:37:05.096Z,0.00
2019-03-12T03:38:05.174Z,0.00
2019-03-12T03:39:05.090Z,0.00
2019-03-12T03:40:05.065Z,0.00
2019-03-12T03:41:05.057Z,0.00
2019-03-12T03:42:05.053Z,0.00
2019-03-12T03:43:05.048Z,0.00
2019-03-12T03:44:05.021Z,0.00
2019-03-12T03:45:05.018Z,0.00
2019-03-12T03:46:05.000Z,0.00
2019-03-12T03:47:04.991Z,0.00
2019-03-12T03:48:05.135Z,0.00
2019-03-12T03:49:04.967Z,0.00
2019-03-12T03:50:04.958Z,0.00
2019-03-12T03:51:04.945Z,0.00
2019-03-12T03:52:04.937Z,0.00
2019-03-12T03:53:04.935Z,0.00
2019-03-12T03:54:04.919Z,0.00
2019-03-12T03:55:04.901Z,0.00
2019-03-12T03:56:04.890Z,0.00
2019-03-12T03:57:04.882Z,0.00
2019-03-12T03:58:04.880Z,0.00
2019-03-12T03:59:04.857Z,0.00
2019-03-12T04:00:04.852Z,0.00
2019-03-12T04:01:04.842Z,0.00
2019-03-12T04:02:04.827Z,0.00
2019-03-12T04:03:04.839Z,0.00
2019-03-12T04:04:04.807Z,0.00
2019-03-12T04:05:04.815Z,0.00
2019-03-12T04:06:04.787Z,0.00
2019-03-12T04:07:04.774Z,0.00
2019-03-12T04:08:04.776Z,0.00
2019-03-12T04:09:04.863Z,0.00
2019-03-12T04:10:04.766Z,0.00
2019-03-12T04:11:04.732Z,0.00
2019-03-12T04:12:04.719Z,0.00
2019-03-12T04:13:04.725Z,0.00
2019-03-12T04:14:04.702Z,0.00
2019-03-12T04:15:04.686Z,0.00
2019-03-12T04:16:04.696Z,0.00
2019-03-12T04:17:04.665Z,0.00
2019-03-12T04:18:04.676Z,0.00
2019-03-12T04:19:04.658Z,0.00
2019-03-12T04:20:04.639Z,0.00
2019-03-12T04:21:04.754Z,0.00
2019-03-12T04:22:04.619Z,0.00
2019-03-12T04:23:04.613Z,0.00
2019-03-12T04:24:04.593Z,0.00
2019-03-12T04:25:04.582Z,0.00
2019-03-12T04:26:04.569Z,0.00
2019-03-12T04:27:04.558Z,0.00
2019-03-12T04:28:04.588Z,0.00
2019-03-12T04:29:04.536Z,0.00
2019-03-12T04:30:04.523Z,0.00
2019-03-12T04:31:04.524Z,0.00
2019-03-12T04:32:04.504Z,0.00
2019-03-12T04:33:04.525Z,0.00
2019-03-12T04:34:04.482Z,0.00
2019-03-12T04:35:04.470Z,0.00
2019-03-12T04:36:04.464Z,0.00
2019-03-12T04:37:04.458Z,0.00
2019-03-12T04:38:06.920Z,0.00
2019-03-12T04:39:04.433Z,0.00
2019-03-12T04:40:04.418Z,0.00
2019-03-12T04:41:04.412Z,0.00
2019-03-12T04:42:04.395Z,0.00
2019-03-12T04:43:04.382Z,0.00
2019-03-12T04:44:04.383Z,0.00
2019-03-12T04:45:04.364Z,0.00
2019-03-12T04:46:04.430Z,0.00
2019-03-12T04:47:04.339Z,0.00
2019-03-12T04:48:04.388Z,0.00
2019-03-12T04:49:04.330Z,0.00
2019-03-12T04:50:04.304Z,0.00
2019-03-12T04:51:04.297Z,0.00
2019-03-12T04:52:04.288Z,0.00
2019-03-12T04:53:04.274Z,0.00
2019-03-12T04:54:04.274Z,0.00
2019-03-12T04:55:04.254Z,0.00
2019-03-12T04:56:04.244Z,0.00
2019-03-12T04:57:04.236Z,0.00
2019-03-12T04:58:04.227Z,0.00
2019-03-12T04:59:04.218Z,0.00
2019-03-12T05:00:04.206Z,0.00
2019-03-12T05:01:04.192Z,0.00
2019-03-12T05:02:04.180Z,0.00
2019-03-12T05:03:04.167Z,0.00
2019-03-12T05:04:04.164Z,0.00
2019-03-12T05:05:04.185Z,4.00
2019-03-12T05:06:04.141Z,4.00
2019-03-12T05:07:04.137Z,0.00
2019-03-12T05:08:04.115Z,0.00
2019-03-12T05:09:04.137Z,0.00
2019-03-12T05:10:04.092Z,0.00
2019-03-12T05:11:04.134Z,0.00
2019-03-12T05:12:04.067Z,4.00
2019-03-12T05:13:04.058Z,4.00
2019-03-12T05:14:04.050Z,0.00
2019-03-12T05:15:04.060Z,4.00
2019-03-12T05:16:04.026Z,4.00
2019-03-12T05:17:04.701Z,8.00
2019-03-12T05:18:04.006Z,4.00
2019-03-12T05:19:03.999Z,4.00
2019-03-12T05:20:03.995Z,12.00
2019-03-12T05:21:03.970Z,12.00
2019-03-12T05:22:03.961Z,12.00
2019-03-12T05:23:03.948Z,12.00
2019-03-12T05:24:03.943Z,12.00
2019-03-12T05:25:03.947Z,12.00
2019-03-12T05:26:03.916Z,16.00
2019-03-12T05:27:03.905Z,20.00
2019-03-12T05:28:03.896Z,20.00
2019-03-12T05:29:03.884Z,28.00
2019-03-12T05:30:03.883Z,32.00
2019-03-12T05:31:03.864Z,32.00
2019-03-12T05:32:03.856Z,32.00
2019-03-12T05:33:03.859Z,36.00
2019-03-12T05:34:03.836Z,40.00
2019-03-12T05:35:03.831Z,44.00
2019-03-12T05:36:03.823Z,44.00
2019-03-12T05:37:03.799Z,44.00
2019-03-12T05:38:03.791Z,52.00
2019-03-12T05:39:03.779Z,60.00
2019-03-12T05:40:03.777Z,60.00
2019-03-12T05:41:03.756Z,64.00
2019-03-12T05:42:03.750Z,60.00
2019-03-12T05:43:03.741Z,64.00
2019-03-12T05:44:03.739Z,76.00
2019-03-12T05:45:03.752Z,68.00
2019-03-12T05:46:03.701Z,68.00
2019-03-12T05:47:03.716Z,80.00
2019-03-12T05:48:03.691Z,88.00
2019-03-12T05:49:03.672Z,92.00
2019-03-12T05:50:03.664Z,88.00
2019-03-12T05:51:03.658Z,92.00
2019-03-12T05:52:03.645Z,104.00
2019-03-12T05:53:03.633Z,116.00
2019-03-12T05:54:03.630Z,116.00
2019-03-12T05:55:03.611Z,128.00
2019-03-12T05:56:03.622Z,136.00
2019-03-12T05:57:03.600Z,152.00
2019-03-12T05:58:03.579Z,188.00
2019-03-12T05:59:03.567Z,228.00
2019-03-12T06:00:03.562Z,264.00
2019-03-12T06:01:03.568Z,224.00
2019-03-12T06:02:03.614Z,220.00
2019-03-12T06:03:03.546Z,200.00
2019-03-12T06:04:03.514Z,212.00
2019-03-12T06:05:03.513Z,244.00
2019-03-12T06:06:03.497Z,288.00
2019-03-12T06:07:03.507Z,344.00
2019-03-12T06:08:03.475Z,352.00
2019-03-12T06:09:03.481Z,420.00
2019-03-12T06:10:03.451Z,500.00
2019-03-12T06:11:03.455Z,484.00
2019-03-12T06:12:03.429Z,456.00
2019-03-12T06:13:03.419Z,468.00
2019-03-12T06:14:03.404Z,532.00
2019-03-12T06:15:03.391Z,504.00
2019-03-12T06:16:03.406Z,452.00
2019-03-12T06:17:03.374Z,436.00
2019-03-12T06:18:03.365Z,484.00
2019-03-12T06:19:03.357Z,480.00
2019-03-12T06:20:03.345Z,480.00
2019-03-12T06:21:03.395Z,552.00
2019-03-12T06:22:03.321Z,584.00
2019-03-12T06:23:03.373Z,540.00
2019-03-12T06:24:03.295Z,604.00
2019-03-12T06:25:03.291Z,640.00
2019-03-12T06:26:03.282Z,616.00
2019-03-12T06:27:03.266Z,548.00
2019-03-12T06:28:03.253Z,524.00
2019-03-12T06:29:03.249Z,516.00
2019-03-12T06:30:03.230Z,576.00
2019-03-12T06:31:03.229Z,724.00
2019-03-12T06:32:03.210Z,712.00
2019-03-12T06:33:03.206Z,664.00
2019-03-12T06:34:03.199Z,728.00
2019-03-12T06:35:03.178Z,688.00
2019-03-12T06:36:03.174Z,604.00
2019-03-12T06:37:03.232Z,572.00
2019-03-12T06:38:03.145Z,632.00
2019-03-12T06:39:03.188Z,652.00
2019-03-12T06:40:03.132Z,908.00
2019-03-12T06:41:03.124Z,1200.00
2019-03-12T06:42:03.111Z,1516.00
2019-03-12T06:43:03.123Z,1508.00
2019-03-12T06:44:03.089Z,2028.00
2019-03-12T06:45:03.079Z,2500.00
2019-03-12T06:46:03.066Z,2264.00
2019-03-12T06:47:03.047Z,1680.00
2019-03-12T06:48:03.034Z,1236.00
2019-03-12T06:49:03.025Z,980.00
2019-03-12T06:50:12.222Z,888.00
2019-03-12T06:51:03.014Z,812.00
2019-03-12T06:52:02.988Z,736.00
2019-03-12T06:53:03.727Z,584.00
2019-03-12T06:54:02.966Z,476.00
2019-03-12T06:55:02.952Z,428.00
2019-03-12T06:56:02.950Z,424.00
2019-03-12T06:57:02.934Z,412.00
2019-03-12T06:58:02.921Z,420.00
2019-03-12T06:59:10.754Z,420.00
2019-03-12T07:00:02.903Z,452.00
2019-03-12T07:01:02.896Z,476.00
2019-03-12T07:02:02.879Z,480.00
2019-03-12T07:03:02.866Z,488.00
2019-03-12T07:04:02.857Z,504.00
2019-03-12T07:05:02.845Z,528.00
2019-03-12T07:06:02.848Z,556.00
2019-03-12T07:07:06.995Z,568.00
2019-03-12T07:08:06.263Z,652.00
2019-03-12T07:09:02.807Z,796.00
2019-03-12T07:10:02.795Z,1024.00
2019-03-12T07:11:02.793Z,1072.00
2019-03-12T07:12:02.778Z,956.00
2019-03-12T07:13:02.758Z,744.00
2019-03-12T07:14:02.752Z,668.00
2019-03-12T07:15:02.739Z,828.00
2019-03-12T07:16:03.760Z,1144.00
2019-03-12T07:17:02.723Z,1468.00
2019-03-12T07:18:02.703Z,1468.00
2019-03-12T07:19:02.693Z,1316.00
2019-03-12T07:20:02.766Z,1376.00
2019-03-12T07:21:02.865Z,1884.00
2019-03-12T07:22:02.665Z,2124.00
2019-03-12T07:23:02.648Z,1848.00
2019-03-12T07:24:02.646Z,1896.00
2019-03-12T07:25:02.626Z,1724.00
2019-03-12T07:26:02.622Z,1884.00
2019-03-12T07:27:02.619Z,2812.00
2019-03-12T07:28:02.595Z,3084.00
2019-03-12T07:29:02.585Z,2640.00
2019-03-12T07:30:02.573Z,2176.00
2019-03-12T07:31:02.599Z,2660.00
2019-03-12T07:32:02.564Z,2000.00
2019-03-12T07:33:02.573Z,2004.00
2019-03-12T07:34:02.542Z,2628.00
2019-03-12T07:35:02.531Z,3704.00
2019-03-12T07:36:02.511Z,6928.00
2019-03-12T07:37:02.512Z,24576.00
2019-03-12T07:38:02.487Z,3552.00
2019-03-12T07:39:02.475Z,2476.00
2019-03-12T07:40:02.464Z,2724.00
2019-03-12T07:41:02.457Z,2968.00
2019-03-12T07:42:02.458Z,3256.00
2019-03-12T07:43:02.438Z,2108.00
2019-03-12T07:44:02.426Z,1896.00
2019-03-12T07:45:02.419Z,2364.00
2019-03-12T07:46:02.470Z,2868.00
2019-03-12T07:47:02.406Z,3488.00
2019-03-12T07:48:02.377Z,4196.00
2019-03-12T07:49:02.407Z,4932.00
2019-03-12T07:50:02.358Z,3832.00
2019-03-12T07:51:02.355Z,3328.00
2019-03-12T07:52:02.369Z,2748.00
2019-03-12T07:53:02.336Z,1636.00
2019-03-12T07:54:02.345Z,1260.00
2019-03-12T07:55:02.309Z,1084.00
2019-03-12T07:56:02.300Z,1316.00
2019-03-12T07:57:02.318Z,1784.00
2019-03-12T07:58:02.269Z,1592.00
2019-03-12T07:59:02.263Z,1328.00
2019-03-12T08:00:02.252Z,1204.00
2019-03-12T08:01:02.237Z,1064.00
2019-03-12T08:02:02.262Z,992.00
2019-03-12T08:03:02.215Z,1076.00
2019-03-12T08:04:02.207Z,1000.00
2019-03-12T08:05:02.198Z,832.00
2019-03-12T08:06:02.182Z,804.00
2019-03-12T08:07:02.172Z,772.00
2019-03-12T08:08:02.174Z,828.00
2019-03-12T08:09:02.151Z,880.00
2019-03-12T08:10:02.149Z,1180.00
2019-03-12T08:11:02.128Z,1408.00
2019-03-12T08:12:02.124Z,1572.00
2019-03-12T08:13:02.121Z,1832.00
2019-03-12T08:14:02.099Z,2200.00
2019-03-12T08:15:02.089Z,2456.00
2019-03-12T08:16:02.076Z,2804.00
2019-03-12T08:17:02.081Z,3576.00
2019-03-12T08:18:02.062Z,4912.00
2019-03-12T08:19:02.061Z,3256.00
2019-03-12T08:20:02.062Z,2860.00
2019-03-12T08:21:02.022Z,3428.00
2019-03-12T08:22:02.119Z,4204.00
2019-03-12T08:23:02.014Z,3696.00
2019-03-12T08:24:01.997Z,2980.00
2019-03-12T08:25:01.982Z,2428.00
2019-03-12T08:26:01.975Z,1864.00
2019-03-12T08:27:01.961Z,1736.00
2019-03-12T08:28:01.957Z,1816.00
2019-03-12T08:29:01.946Z,1700.00
2019-03-12T08:30:01.933Z,1592.00
2019-03-12T08:31:01.924Z,1388.00
2019-03-12T08:32:01.903Z,1320.00
2019-03-12T08:33:01.902Z,1252.00
2019-03-12T08:34:01.883Z,1308.00
2019-03-12T08:35:01.871Z,1400.00
2019-03-12T08:36:01.865Z,1532.00
2019-03-12T08:37:01.851Z,1504.00
2019-03-12T08:38:01.845Z,1632.00
2019-03-12T08:39:01.823Z,1492.00
2019-03-12T08:40:01.820Z,1608.00
2019-03-12T08:41:01.803Z,1720.00
2019-03-12T08:42:01.839Z,1624.00
2019-03-12T08:43:01.816Z,1868.00
2019-03-12T08:44:01.781Z,1960.00
2019-03-12T08:45:01.784Z,2148.00
2019-03-12T08:46:01.748Z,2188.00
2019-03-12T08:47:01.757Z,2560.00
2019-03-12T08:48:01.761Z,2600.00
2019-03-12T08:49:01.741Z,2328.00
2019-03-12T08:50:01.780Z,2252.00
2019-03-12T08:51:04.914Z,2052.00
2019-03-12T08:52:01.684Z,2336.00
2019-03-12T08:53:01.685Z,2692.00
2019-03-12T08:54:01.690Z,3216.00
2019-03-12T08:55:03.904Z,4320.00
2019-03-12T08:56:01.637Z,4924.00
2019-03-12T08:57:01.634Z,5968.00
2019-03-12T08:58:01.632Z,6212.00
2019-03-12T08:59:01.634Z,20064.00
2019-03-12T09:00:01.607Z,15100.00
2019-03-12T09:01:01.585Z,10692.00
2019-03-12T09:02:02.647Z,9212.00
2019-03-12T09:03:01.597Z,5212.00
2019-03-12T09:04:01.565Z,5476.00
2019-03-12T09:05:01.557Z,5096.00
2019-03-12T09:06:01.548Z,6096.00
2019-03-12T09:07:01.518Z,6176.00
2019-03-12T09:08:01.527Z,6344.00
2019-03-12T09:09:01.510Z,5832.00
2019-03-12T09:10:01.489Z,4996.00
2019-03-12T09:11:01.490Z,4604.00
2019-03-12T09:12:01.485Z,4076.00
2019-03-12T09:13:01.453Z,3472.00
2019-03-12T09:14:01.455Z,2708.00
2019-03-12T09:15:01.435Z,2204.00
2019-03-12T09:16:01.428Z,2424.00
2019-03-12T09:17:01.409Z,2716.00
2019-03-12T09:18:01.398Z,3552.00
2019-03-12T09:19:01.457Z,3148.00
2019-03-12T09:20:01.390Z,2992.00
2019-03-12T09:21:01.369Z,3136.00
2019-03-12T09:22:01.369Z,3608.00
2019-03-12T09:23:01.424Z,3156.00
2019-03-12T09:24:01.354Z,2700.00
2019-03-12T09:25:01.346Z,2688.00
2019-03-12T09:26:01.385Z,3328.00
2019-03-12T09:27:01.302Z,5024.00
2019-03-12T09:28:01.299Z,7800.00
2019-03-12T09:29:01.322Z,15788.00
2019-03-12T09:30:01.388Z,13904.00
2019-03-12T09:31:01.255Z,17056.00
2019-03-12T09:32:01.300Z,27360.00
2019-03-12T09:33:01.243Z,69984.00
2019-03-12T09:34:01.224Z,55200.00
2019-03-12T09:35:01.222Z,10504.00
2019-03-12T09:36:01.202Z,20576.00
2019-03-12T09:37:02.855Z,12508.00
2019-03-12T09:38:01.181Z,10420.00
2019-03-12T09:39:01.178Z,21888.00
2019-03-12T09:40:01.183Z,15156.00
2019-03-12T09:41:01.149Z,5624.00
2019-03-12T09:42:01.137Z,3600.00
2019-03-12T09:43:01.125Z,4200.00
2019-03-12T09:44:01.126Z,6376.00
2019-03-12T09:45:01.119Z,6808.00
2019-03-12T09:46:01.120Z,8028.00
2019-03-12T09:47:01.081Z,11092.00
2019-03-12T09:48:01.072Z,5888.00
2019-03-12T09:49:01.066Z,4800.00
2019-03-12T09:50:01.077Z,5200.00
2019-03-12T09:51:01.054Z,4984.00
2019-03-12T09:52:01.046Z,6520.00
2019-03-12T09:53:01.015Z,8692.00
2019-03-12T09:54:01.004Z,22368.00
2019-03-12T09:55:01.009Z,29280.00
2019-03-12T09:56:00.988Z,32448.00
2019-03-12T09:57:00.973Z,23008.00
2019-03-12T09:58:00.958Z,43392.00
2019-03-12T09:59:00.948Z,45312.00
2019-03-12T10:00:00.973Z,30784.00
2019-03-12T10:01:00.935Z,32352.00
2019-03-12T10:02:00.918Z,31040.00
2019-03-12T10:03:00.910Z,10612.00
2019-03-12T10:04:00.893Z,8256.00
2019-03-12T10:05:00.892Z,8684.00
2019-03-12T10:06:00.872Z,34848.00
2019-03-12T10:07:00.864Z,22880.00
2019-03-12T10:08:00.853Z,22144.00
2019-03-12T10:09:00.859Z,11524.00
2019-03-12T10:10:00.835Z,8516.00
2019-03-12T10:11:00.819Z,21248.00
2019-03-12T10:12:00.807Z,9588.00
2019-03-12T10:13:00.811Z,8768.00
2019-03-12T10:14:01.395Z,7636.00
2019-03-12T10:15:00.783Z,12652.00
2019-03-12T10:16:00.762Z,6124.00
2019-03-12T10:17:00.760Z,5436.00
2019-03-12T10:18:02.623Z,5836.00
2019-03-12T10:19:00.728Z,6100.00
2019-03-12T10:20:00.728Z,6112.00
2019-03-12T10:21:00.708Z,6156.00
2019-03-12T10:22:00.696Z,6984.00
2019-03-12T10:23:00.686Z,25472.00
2019-03-12T10:24:00.674Z,6412.00
2019-03-12T10:25:00.681Z,6040.00
2019-03-12T10:26:00.655Z,6336.00
2019-03-12T10:27:00.643Z,7228.00
2019-03-12T10:28:00.630Z,12200.00
2019-03-12T10:29:00.622Z,14572.00
2019-03-12T10:30:00.617Z,25088.00
2019-03-12T10:31:00.598Z,13664.00
2019-03-12T10:32:00.590Z,49536.00
2019-03-12T10:33:00.583Z,42400.00
2019-03-12T10:34:00.571Z,37632.00
2019-03-12T10:35:00.566Z,52320.00
2019-03-12T10:36:00.669Z,45856.00
2019-03-12T10:37:11.283Z,20928.00
2019-03-12T10:38:01.521Z,27712.00
2019-03-12T10:39:00.509Z,13124.00
2019-03-12T10:40:00.543Z,8220.00
2019-03-12T10:41:00.512Z,8800.00
2019-03-12T10:42:00.474Z,8416.00
2019-03-12T10:43:00.466Z,11548.00
2019-03-12T10:44:00.469Z,6140.00
2019-03-12T10:45:00.484Z,6428.00
2019-03-12T10:46:00.436Z,7584.00
2019-03-12T10:47:00.429Z,13668.00
2019-03-12T10:48:00.415Z,9660.00
2019-03-12T10:49:00.399Z,11560.00
2019-03-12T10:50:00.387Z,9672.00
2019-03-12T10:51:00.393Z,9168.00
2019-03-12T10:52:00.377Z,6424.00
2019-03-12T10:53:00.354Z,6372.00
2019-03-12T10:54:00.346Z,6952.00
2019-03-12T10:55:12.515Z,18944.00
2019-03-12T10:56:01.328Z,48448.00
2019-03-12T10:57:00.311Z,9904.00
2019-03-12T10:58:00.336Z,10764.00
2019-03-12T10:59:00.291Z,39360.00
2019-03-12T11:00:00.414Z,28992.00
2019-03-12T11:01:00.334Z,11860.00
2019-03-12T11:02:00.279Z,10708.00
2019-03-12T11:03:00.252Z,6572.00
2019-03-12T11:04:00.236Z,5968.00
2019-03-12T11:05:00.456Z,7984.00
2019-03-12T11:06:00.222Z,4872.00
2019-03-12T11:07:00.202Z,4600.00
2019-03-12T11:08:00.189Z,9464.00
2019-03-12T11:09:00.182Z,8844.00
2019-03-12T11:10:00.475Z,9532.00
2019-03-12T11:11:00.169Z,13952.00
2019-03-12T11:12:00.153Z,6824.00
2019-03-12T11:13:00.136Z,5936.00
2019-03-12T11:14:00.126Z,5408.00
2019-03-12T11:15:00.119Z,5092.00
2019-03-12T11:16:00.111Z,5208.00
2019-03-12T11:17:00.090Z,6416.00
2019-03-12T11:18:00.080Z,13704.00
2019-03-12T11:19:00.079Z,16000.00
2019-03-12T11:20:00.068Z,20896.00
2019-03-12T11:21:00.063Z,24416.00
2019-03-12T11:22:00.038Z,23840.00
2019-03-12T11:23:00.027Z,14520.00
2019-03-12T11:24:00.013Z,17792.00
2019-03-12T11:25:00.002Z,6148.00
2019-03-12T11:26:00.010Z,5284.00
2019-03-12T11:26:59.996Z,5616.00
2019-03-12T11:27:59.974Z,6452.00
2019-03-12T11:28:59.958Z,5260.00
2019-03-12T11:29:59.952Z,5596.00
2019-03-12T11:30:59.949Z,18240.00
2019-03-12T11:31:59.925Z,15840.00
2019-03-12T11:32:59.923Z,16896.00
2019-03-12T11:33:59.906Z,17920.00
2019-03-12T11:34:59.897Z,9244.00
2019-03-12T11:35:59.926Z,15744.00
2019-03-12T11:36:59.899Z,16992.00
2019-03-12T11:37:59.874Z,15384.00
2019-03-12T11:38:59.912Z,15472.00
2019-03-12T11:39:59.841Z,15032.00
2019-03-12T11:40:59.861Z,13692.00
2019-03-12T11:41:59.833Z,18496.00
2019-03-12T11:42:59.817Z,15264.00
2019-03-12T11:43:59.804Z,21568.00
2019-03-12T11:44:59.787Z,20160.00
2019-03-12T11:45:59.838Z,16448.00
2019-03-12T11:46:59.818Z,7008.00
2019-03-12T11:47:59.781Z,6756.00
2019-03-12T11:48:59.766Z,6580.00
2019-03-12T11:49:59.729Z,13968.00
2019-03-12T11:50:59.716Z,15284.00
2019-03-12T11:51:59.757Z,16384.00
2019-03-12T11:53:00.787Z,14368.00
2019-03-12T11:53:59.764Z,11388.00
2019-03-12T11:54:59.680Z,8796.00
2019-03-12T11:55:59.662Z,10308.00
2019-03-12T11:56:59.674Z,15680.00
2019-03-12T11:57:59.679Z,14980.00
2019-03-12T11:58:59.635Z,10520.00
2019-03-12T11:59:59.630Z,12468.00
2019-03-12T12:00:59.680Z,11956.00
2019-03-12T12:01:59.605Z,10084.00
2019-03-12T12:03:00.663Z,9316.00
2019-03-12T12:03:59.581Z,10064.00
2019-03-12T12:04:59.564Z,8644.00
2019-03-12T12:05:59.885Z,8504.00
2019-03-12T12:06:59.550Z,5772.00
2019-03-12T12:07:59.555Z,6152.00
2019-03-12T12:08:59.525Z,7248.00
2019-03-12T12:09:59.541Z,12604.00
2019-03-12T12:10:59.502Z,12016.00
2019-03-12T12:11:59.494Z,9960.00
2019-03-12T12:12:59.482Z,8852.00
2019-03-12T12:13:59.474Z,8320.00
2019-03-12T12:14:59.459Z,7448.00
2019-03-12T12:15:59.449Z,6412.00
2019-03-12T12:16:59.442Z,8556.00
2019-03-12T12:17:59.423Z,6888.00
2019-03-12T12:18:59.412Z,8552.00
2019-03-12T12:19:59.399Z,9144.00
2019-03-12T12:20:59.395Z,7072.00
2019-03-12T12:21:59.401Z,6408.00
2019-03-12T12:22:59.365Z,7836.00
2019-03-12T12:23:59.354Z,8464.00
2019-03-12T12:24:59.343Z,8376.00
2019-03-12T12:25:59.336Z,7592.00
2019-03-12T12:26:59.341Z,7420.00
2019-03-12T12:27:59.317Z,6964.00
2019-03-12T12:29:01.823Z,6876.00
2019-03-12T12:29:59.792Z,7284.00
2019-03-12T12:31:01.875Z,6356.00
2019-03-12T12:32:00.397Z,7252.00
2019-03-12T12:32:59.270Z,5632.00
2019-03-12T12:33:59.247Z,7052.00
2019-03-12T12:34:59.233Z,6864.00
2019-03-12T12:36:01.057Z,7316.00